sensor_id;sensor_type;location;lat;lon;timestamp;P1;durP1;ratioP1;P2;durP2;ratioP2
7158;SDS011;63175;52.374;13.132;2024-01-30T00:02:25;6.97;;;4.93;;
7158;SDS011;63175;52.374;13.132;2024-01-30T00:04:52;7.43;;;4.93;;
7158;SDS011;63175;52.374;13.132;2024-01-30T00:07:19;7.30;;;4.60;;
7158;SDS011;63175;52.374;13.132;2024-01-30T00:09:47;5.03;;;4.00;;
7158;SDS011;63175;52.374;13.132;2024-01-30T00:12:14;4.77;;;4.27;;
7158;SDS011;63175;52.374;13.132;2024-01-30T00:14:41;7.93;;;4.50;;
7158;SDS011;63175;52.374;13.132;2024-01-30T00:17:09;7.13;;;4.00;;
7158;SDS011;63175;52.374;13.132;2024-01-30T00:19:36;6.43;;;4.23;;
7158;SDS011;63175;52.374;13.132;2024-01-30T00:22:03;10.13;;;4.90;;
7158;SDS011;63175;52.374;13.132;2024-01-30T00:24:30;5.90;;;4.20;;
7158;SDS011;63175;52.374;13.132;2024-01-30T00:26:58;8.23;;;4.47;;
7158;SDS011;63175;52.374;13.132;2024-01-30T00:29:25;5.83;;;4.60;;
7158;SDS011;63175;52.374;13.132;2024-01-30T00:31:55;7.07;;;5.50;;
7158;SDS011;63175;52.374;13.132;2024-01-30T00:34:22;9.10;;;4.80;;
7158;SDS011;63175;52.374;13.132;2024-01-30T00:36:49;5.67;;;4.37;;
7158;SDS011;63175;52.374;13.132;2024-01-30T00:39:15;5.63;;;4.50;;
7158;SDS011;63175;52.374;13.132;2024-01-30T00:41:44;7.53;;;5.00;;
7158;SDS011;63175;52.374;13.132;2024-01-30T00:44:12;7.60;;;4.30;;
7158;SDS011;63175;52.374;13.132;2024-01-30T00:46:39;5.50;;;3.97;;
7158;SDS011;63175;52.374;13.132;2024-01-30T00:49:06;4.80;;;3.97;;
7158;SDS011;63175;52.374;13.132;2024-01-30T00:51:33;6.73;;;4.47;;
7158;SDS011;63175;52.374;13.132;2024-01-30T00:54:00;6.40;;;4.50;;
7158;SDS011;63175;52.374;13.132;2024-01-30T00:56:27;8.13;;;4.57;;
7158;SDS011;63175;52.374;13.132;2024-01-30T00:58:55;5.97;;;3.73;;
7158;SDS011;63175;52.374;13.132;2024-01-30T01:01:23;7.53;;;3.80;;
7158;SDS011;63175;52.374;13.132;2024-01-30T01:03:50;6.17;;;4.40;;
7158;SDS011;63175;52.374;13.132;2024-01-30T01:06:17;6.37;;;4.90;;
7158;SDS011;63175;52.374;13.132;2024-01-30T01:08:44;9.70;;;5.77;;
7158;SDS011;63175;52.374;13.132;2024-01-30T01:11:10;4.77;;;4.10;;
7158;SDS011;63175;52.374;13.132;2024-01-30T01:13:37;6.23;;;4.40;;
7158;SDS011;63175;52.374;13.132;2024-01-30T01:16:04;6.93;;;4.17;;
7158;SDS011;63175;52.374;13.132;2024-01-30T01:18:32;7.27;;;4.97;;
7158;SDS011;63175;52.374;13.132;2024-01-30T01:20:59;9.10;;;4.80;;
7158;SDS011;63175;52.374;13.132;2024-01-30T01:23:26;6.87;;;5.00;;
7158;SDS011;63175;52.374;13.132;2024-01-30T01:25:53;5.40;;;4.57;;
7158;SDS011;63175;52.374;13.132;2024-01-30T01:28:20;8.00;;;5.10;;
7158;SDS011;63175;52.374;13.132;2024-01-30T01:30:47;6.40;;;4.33;;
7158;SDS011;63175;52.374;13.132;2024-01-30T01:33:14;7.47;;;4.70;;
7158;SDS011;63175;52.374;13.132;2024-01-30T01:35:42;10.67;;;5.23;;
7158;SDS011;63175;52.374;13.132;2024-01-30T01:38:09;7.80;;;5.73;;
7158;SDS011;63175;52.374;13.132;2024-01-30T01:40:36;9.63;;;4.93;;
7158;SDS011;63175;52.374;13.132;2024-01-30T01:43:05;7.77;;;5.13;;
7158;SDS011;63175;52.374;13.132;2024-01-30T01:45:32;6.80;;;5.07;;
7158;SDS011;63175;52.374;13.132;2024-01-30T01:47:59;7.87;;;5.90;;
7158;SDS011;63175;52.374;13.132;2024-01-30T01:50:26;7.70;;;5.00;;
7158;SDS011;63175;52.374;13.132;2024-01-30T01:52:54;8.13;;;5.30;;
7158;SDS011;63175;52.374;13.132;2024-01-30T01:55:22;5.50;;;4.20;;
7158;SDS011;63175;52.374;13.132;2024-01-30T01:57:51;9.83;;;4.70;;
7158;SDS011;63175;52.374;13.132;2024-01-30T02:00:19;8.80;;;4.63;;
7158;SDS011;63175;52.374;13.132;2024-01-30T02:02:46;7.80;;;4.70;;
7158;SDS011;63175;52.374;13.132;2024-01-30T02:05:14;7.00;;;4.57;;
7158;SDS011;63175;52.374;13.132;2024-01-30T02:07:41;7.87;;;4.37;;
7158;SDS011;63175;52.374;13.132;2024-01-30T02:10:11;7.60;;;4.80;;
7158;SDS011;63175;52.374;13.132;2024-01-30T02:12:38;8.40;;;4.37;;
7158;SDS011;63175;52.374;13.132;2024-01-30T02:15:05;11.83;;;5.37;;
7158;SDS011;63175;52.374;13.132;2024-01-30T02:17:33;5.70;;;4.20;;
7158;SDS011;63175;52.374;13.132;2024-01-30T02:19:59;6.50;;;4.70;;
7158;SDS011;63175;52.374;13.132;2024-01-30T02:22:28;6.80;;;4.53;;
7158;SDS011;63175;52.374;13.132;2024-01-30T02:24:55;6.77;;;5.47;;
7158;SDS011;63175;52.374;13.132;2024-01-30T02:27:22;8.23;;;4.50;;
7158;SDS011;63175;52.374;13.132;2024-01-30T02:29:49;7.47;;;5.40;;
7158;SDS011;63175;52.374;13.132;2024-01-30T02:32:16;7.20;;;5.10;;
7158;SDS011;63175;52.374;13.132;2024-01-30T02:34:43;8.60;;;5.23;;
7158;SDS011;63175;52.374;13.132;2024-01-30T02:37:09;8.80;;;4.73;;
7158;SDS011;63175;52.374;13.132;2024-01-30T02:39:38;11.40;;;5.77;;
7158;SDS011;63175;52.374;13.132;2024-01-30T02:42:05;6.30;;;4.80;;
7158;SDS011;63175;52.374;13.132;2024-01-30T02:44:32;7.13;;;4.47;;
7158;SDS011;63175;52.374;13.132;2024-01-30T02:46:58;8.40;;;5.10;;
7158;SDS011;63175;52.374;13.132;2024-01-30T02:49:25;10.33;;;4.90;;
7158;SDS011;63175;52.374;13.132;2024-01-30T02:51:53;7.10;;;4.70;;
7158;SDS011;63175;52.374;13.132;2024-01-30T02:54:21;7.33;;;4.30;;
7158;SDS011;63175;52.374;13.132;2024-01-30T02:56:50;6.90;;;4.27;;
7158;SDS011;63175;52.374;13.132;2024-01-30T02:59:16;5.47;;;4.23;;
7158;SDS011;63175;52.374;13.132;2024-01-30T03:01:43;7.10;;;4.90;;
7158;SDS011;63175;52.374;13.132;2024-01-30T03:04:11;6.70;;;4.27;;
7158;SDS011;63175;52.374;13.132;2024-01-30T03:06:38;7.80;;;4.93;;
7158;SDS011;63175;52.374;13.132;2024-01-30T03:09:05;8.10;;;4.73;;
7158;SDS011;63175;52.374;13.132;2024-01-30T03:11:31;7.20;;;4.83;;
7158;SDS011;63175;52.374;13.132;2024-01-30T03:14:00;5.73;;;4.67;;
7158;SDS011;63175;52.374;13.132;2024-01-30T03:16:26;5.40;;;4.50;;
7158;SDS011;63175;52.374;13.132;2024-01-30T03:18:53;6.70;;;5.00;;
7158;SDS011;63175;52.374;13.132;2024-01-30T03:21:20;7.63;;;4.70;;
7158;SDS011;63175;52.374;13.132;2024-01-30T03:23:47;6.93;;;4.63;;
7158;SDS011;63175;52.374;13.132;2024-01-30T03:26:14;6.20;;;4.40;;
7158;SDS011;63175;52.374;13.132;2024-01-30T03:28:41;7.13;;;5.10;;
7158;SDS011;63175;52.374;13.132;2024-01-30T03:31:09;5.33;;;4.50;;
7158;SDS011;63175;52.374;13.132;2024-01-30T03:33:36;6.80;;;4.53;;
7158;SDS011;63175;52.374;13.132;2024-01-30T03:36:04;7.13;;;5.00;;
7158;SDS011;63175;52.374;13.132;2024-01-30T03:38:31;5.13;;;4.30;;
7158;SDS011;63175;52.374;13.132;2024-01-30T03:40:58;7.33;;;4.70;;
7158;SDS011;63175;52.374;13.132;2024-01-30T03:43:25;8.90;;;5.33;;
7158;SDS011;63175;52.374;13.132;2024-01-30T03:45:52;9.50;;;5.30;;
7158;SDS011;63175;52.374;13.132;2024-01-30T03:48:21;6.33;;;4.57;;
7158;SDS011;63175;52.374;13.132;2024-01-30T03:50:48;6.70;;;4.93;;
7158;SDS011;63175;52.374;13.132;2024-01-30T03:53:14;6.00;;;4.70;;
7158;SDS011;63175;52.374;13.132;2024-01-30T03:55:41;7.10;;;4.73;;
7158;SDS011;63175;52.374;13.132;2024-01-30T03:58:08;5.60;;;4.50;;
7158;SDS011;63175;52.374;13.132;2024-01-30T04:00:35;7.60;;;4.87;;
7158;SDS011;63175;52.374;13.132;2024-01-30T04:03:02;6.90;;;4.80;;
7158;SDS011;63175;52.374;13.132;2024-01-30T04:05:30;7.43;;;5.53;;
7158;SDS011;63175;52.374;13.132;2024-01-30T04:07:57;7.43;;;5.37;;
7158;SDS011;63175;52.374;13.132;2024-01-30T04:10:24;5.67;;;4.20;;
7158;SDS011;63175;52.374;13.132;2024-01-30T04:12:51;5.90;;;4.37;;
7158;SDS011;63175;52.374;13.132;2024-01-30T04:15:19;8.03;;;5.67;;
7158;SDS011;63175;52.374;13.132;2024-01-30T04:17:45;7.53;;;5.10;;
7158;SDS011;63175;52.374;13.132;2024-01-30T04:20:13;8.00;;;5.17;;
7158;SDS011;63175;52.374;13.132;2024-01-30T04:22:42;6.50;;;4.60;;
7158;SDS011;63175;52.374;13.132;2024-01-30T04:25:09;7.07;;;4.93;;
7158;SDS011;63175;52.374;13.132;2024-01-30T04:27:36;8.97;;;4.30;;
7158;SDS011;63175;52.374;13.132;2024-01-30T04:30:04;14.97;;;5.50;;
7158;SDS011;63175;52.374;13.132;2024-01-30T04:32:31;6.90;;;4.60;;
7158;SDS011;63175;52.374;13.132;2024-01-30T04:34:58;7.67;;;4.97;;
7158;SDS011;63175;52.374;13.132;2024-01-30T04:37:25;5.23;;;4.23;;
7158;SDS011;63175;52.374;13.132;2024-01-30T04:39:54;8.27;;;5.20;;
7158;SDS011;63175;52.374;13.132;2024-01-30T04:42:21;6.13;;;4.70;;
7158;SDS011;63175;52.374;13.132;2024-01-30T04:44:47;5.57;;;4.30;;
7158;SDS011;63175;52.374;13.132;2024-01-30T04:47:14;6.30;;;4.50;;
7158;SDS011;63175;52.374;13.132;2024-01-30T04:49:41;7.93;;;5.00;;
7158;SDS011;63175;52.374;13.132;2024-01-30T04:52:08;6.20;;;4.67;;
7158;SDS011;63175;52.374;13.132;2024-01-30T04:54:35;5.13;;;4.40;;
7158;SDS011;63175;52.374;13.132;2024-01-30T04:57:04;7.13;;;4.83;;
7158;SDS011;63175;52.374;13.132;2024-01-30T04:59:34;6.40;;;5.07;;
7158;SDS011;63175;52.374;13.132;2024-01-30T05:02:01;6.77;;;4.60;;
7158;SDS011;63175;52.374;13.132;2024-01-30T05:04:28;6.20;;;4.53;;
7158;SDS011;63175;52.374;13.132;2024-01-30T05:06:55;11.80;;;4.73;;
7158;SDS011;63175;52.374;13.132;2024-01-30T05:09:22;7.43;;;4.77;;
7158;SDS011;63175;52.374;13.132;2024-01-30T05:11:49;7.93;;;5.17;;
7158;SDS011;63175;52.374;13.132;2024-01-30T05:14:17;5.53;;;4.53;;
7158;SDS011;63175;52.374;13.132;2024-01-30T05:16:44;7.17;;;4.97;;
7158;SDS011;63175;52.374;13.132;2024-01-30T05:19:12;4.53;;;3.90;;
7158;SDS011;63175;52.374;13.132;2024-01-30T05:21:39;5.60;;;4.80;;
7158;SDS011;63175;52.374;13.132;2024-01-30T05:24:06;9.77;;;4.90;;
7158;SDS011;63175;52.374;13.132;2024-01-30T05:26:34;5.73;;;4.50;;
7158;SDS011;63175;52.374;13.132;2024-01-30T05:29:01;8.97;;;5.20;;
7158;SDS011;63175;52.374;13.132;2024-01-30T05:31:30;7.50;;;5.10;;
7158;SDS011;63175;52.374;13.132;2024-01-30T05:33:57;5.70;;;4.20;;
7158;SDS011;63175;52.374;13.132;2024-01-30T05:36:24;7.57;;;4.93;;
7158;SDS011;63175;52.374;13.132;2024-01-30T05:38:50;8.63;;;5.17;;
7158;SDS011;63175;52.374;13.132;2024-01-30T05:41:17;7.83;;;4.90;;
7158;SDS011;63175;52.374;13.132;2024-01-30T05:43:44;8.93;;;5.53;;
7158;SDS011;63175;52.374;13.132;2024-01-30T05:46:11;8.23;;;5.10;;
7158;SDS011;63175;52.374;13.132;2024-01-30T05:48:39;10.20;;;5.47;;
7158;SDS011;63175;52.374;13.132;2024-01-30T05:51:06;11.67;;;5.17;;
7158;SDS011;63175;52.374;13.132;2024-01-30T05:53:34;9.17;;;6.27;;
7158;SDS011;63175;52.374;13.132;2024-01-30T05:56:01;9.67;;;5.83;;
7158;SDS011;63175;52.374;13.132;2024-01-30T05:58:28;7.67;;;6.13;;
7158;SDS011;63175;52.374;13.132;2024-01-30T06:00:56;8.00;;;5.40;;
7158;SDS011;63175;52.374;13.132;2024-01-30T06:03:23;7.10;;;4.90;;
7158;SDS011;63175;52.374;13.132;2024-01-30T06:05:51;10.07;;;5.97;;
7158;SDS011;63175;52.374;13.132;2024-01-30T06:08:18;8.43;;;5.97;;
7158;SDS011;63175;52.374;13.132;2024-01-30T06:10:45;9.80;;;5.77;;
7158;SDS011;63175;52.374;13.132;2024-01-30T06:13:12;7.70;;;5.73;;
7158;SDS011;63175;52.374;13.132;2024-01-30T06:15:40;7.20;;;5.47;;
7158;SDS011;63175;52.374;13.132;2024-01-30T06:18:07;5.40;;;4.67;;
7158;SDS011;63175;52.374;13.132;2024-01-30T06:20:34;10.50;;;5.90;;
7158;SDS011;63175;52.374;13.132;2024-01-30T06:23:02;8.60;;;5.43;;
7158;SDS011;63175;52.374;13.132;2024-01-30T06:25:29;10.93;;;6.00;;
7158;SDS011;63175;52.374;13.132;2024-01-30T06:27:56;7.90;;;5.27;;
7158;SDS011;63175;52.374;13.132;2024-01-30T06:30:22;11.80;;;6.33;;
7158;SDS011;63175;52.374;13.132;2024-01-30T06:32:49;8.67;;;6.20;;
7158;SDS011;63175;52.374;13.132;2024-01-30T06:35:16;8.03;;;5.40;;
7158;SDS011;63175;52.374;13.132;2024-01-30T06:37:43;7.77;;;5.67;;
7158;SDS011;63175;52.374;13.132;2024-01-30T06:40:12;7.50;;;5.13;;
7158;SDS011;63175;52.374;13.132;2024-01-30T06:42:39;10.27;;;5.80;;
7158;SDS011;63175;52.374;13.132;2024-01-30T06:45:06;9.70;;;6.10;;
7158;SDS011;63175;52.374;13.132;2024-01-30T06:47:34;8.13;;;5.60;;
7158;SDS011;63175;52.374;13.132;2024-01-30T06:50:00;8.60;;;5.70;;
7158;SDS011;63175;52.374;13.132;2024-01-30T06:52:28;9.10;;;5.30;;
7158;SDS011;63175;52.374;13.132;2024-01-30T06:54:55;10.73;;;6.90;;
7158;SDS011;63175;52.374;13.132;2024-01-30T06:57:23;19.63;;;6.87;;
7158;SDS011;63175;52.374;13.132;2024-01-30T06:59:52;10.00;;;6.30;;
7158;SDS011;63175;52.374;13.132;2024-01-30T07:02:21;10.90;;;6.03;;
7158;SDS011;63175;52.374;13.132;2024-01-30T07:04:48;11.60;;;6.63;;
7158;SDS011;63175;52.374;13.132;2024-01-30T07:07:15;11.07;;;6.33;;
7158;SDS011;63175;52.374;13.132;2024-01-30T07:09:42;9.90;;;6.40;;
7158;SDS011;63175;52.374;13.132;2024-01-30T07:12:09;8.50;;;5.43;;
7158;SDS011;63175;52.374;13.132;2024-01-30T07:14:37;7.57;;;5.17;;
7158;SDS011;63175;52.374;13.132;2024-01-30T07:17:04;10.20;;;5.77;;
7158;SDS011;63175;52.374;13.132;2024-01-30T07:19:32;7.43;;;5.70;;
7158;SDS011;63175;52.374;13.132;2024-01-30T07:22:00;6.30;;;5.20;;
7158;SDS011;63175;52.374;13.132;2024-01-30T07:24:26;9.23;;;5.53;;
7158;SDS011;63175;52.374;13.132;2024-01-30T07:26:53;9.00;;;5.87;;
7158;SDS011;63175;52.374;13.132;2024-01-30T07:29:20;8.53;;;5.77;;
7158;SDS011;63175;52.374;13.132;2024-01-30T07:31:48;8.97;;;5.20;;
7158;SDS011;63175;52.374;13.132;2024-01-30T07:34:15;9.80;;;5.73;;
7158;SDS011;63175;52.374;13.132;2024-01-30T07:36:42;8.13;;;4.93;;
7158;SDS011;63175;52.374;13.132;2024-01-30T07:39:09;6.77;;;5.40;;
7158;SDS011;63175;52.374;13.132;2024-01-30T07:41:36;9.50;;;6.00;;
7158;SDS011;63175;52.374;13.132;2024-01-30T07:44:03;10.80;;;5.60;;
7158;SDS011;63175;52.374;13.132;2024-01-30T07:46:30;7.67;;;5.13;;
7158;SDS011;63175;52.374;13.132;2024-01-30T07:48:59;8.53;;;5.47;;
7158;SDS011;63175;52.374;13.132;2024-01-30T07:51:26;8.07;;;5.60;;
7158;SDS011;63175;52.374;13.132;2024-01-30T07:53:54;12.70;;;5.27;;
7158;SDS011;63175;52.374;13.132;2024-01-30T07:56:22;6.77;;;5.13;;
7158;SDS011;63175;52.374;13.132;2024-01-30T07:58:49;8.63;;;5.17;;
7158;SDS011;63175;52.374;13.132;2024-01-30T08:01:16;7.37;;;5.40;;
7158;SDS011;63175;52.374;13.132;2024-01-30T08:03:42;9.17;;;6.33;;
7158;SDS011;63175;52.374;13.132;2024-01-30T08:06:11;7.87;;;5.60;;
7158;SDS011;63175;52.374;13.132;2024-01-30T08:08:37;9.87;;;6.10;;
7158;SDS011;63175;52.374;13.132;2024-01-30T08:11:04;10.77;;;5.37;;
7158;SDS011;63175;52.374;13.132;2024-01-30T08:13:32;7.73;;;5.43;;
7158;SDS011;63175;52.374;13.132;2024-01-30T08:15:59;8.53;;;5.80;;
7158;SDS011;63175;52.374;13.132;2024-01-30T08:18:26;8.83;;;5.60;;
7158;SDS011;63175;52.374;13.132;2024-01-30T08:20:53;8.80;;;5.10;;
7158;SDS011;63175;52.374;13.132;2024-01-30T08:23:21;7.67;;;5.50;;
7158;SDS011;63175;52.374;13.132;2024-01-30T08:25:48;10.00;;;5.70;;
7158;SDS011;63175;52.374;13.132;2024-01-30T08:28:15;7.77;;;5.67;;
7158;SDS011;63175;52.374;13.132;2024-01-30T08:30:42;7.63;;;5.03;;
7158;SDS011;63175;52.374;13.132;2024-01-30T08:33:08;8.10;;;5.43;;
7158;SDS011;63175;52.374;13.132;2024-01-30T08:35:35;10.57;;;6.20;;
7158;SDS011;63175;52.374;13.132;2024-01-30T08:38:03;7.50;;;5.40;;
7158;SDS011;63175;52.374;13.132;2024-01-30T08:40:31;13.90;;;6.30;;
7158;SDS011;63175;52.374;13.132;2024-01-30T08:42:58;7.83;;;5.40;;
7158;SDS011;63175;52.374;13.132;2024-01-30T08:45:25;10.87;;;6.10;;
7158;SDS011;63175;52.374;13.132;2024-01-30T08:47:52;6.73;;;5.63;;
7158;SDS011;63175;52.374;13.132;2024-01-30T08:50:18;6.67;;;4.90;;
7158;SDS011;63175;52.374;13.132;2024-01-30T08:52:45;12.20;;;6.30;;
7158;SDS011;63175;52.374;13.132;2024-01-30T08:55:12;6.07;;;4.73;;
7158;SDS011;63175;52.374;13.132;2024-01-30T08:57:40;6.03;;;4.50;;
7158;SDS011;63175;52.374;13.132;2024-01-30T09:00:07;11.43;;;6.13;;
7158;SDS011;63175;52.374;13.132;2024-01-30T09:02:35;6.80;;;5.30;;
7158;SDS011;63175;52.374;13.132;2024-01-30T09:05:02;10.40;;;6.27;;
7158;SDS011;63175;52.374;13.132;2024-01-30T09:07:29;6.07;;;4.77;;
7158;SDS011;63175;52.374;13.132;2024-01-30T09:09:56;12.03;;;5.93;;
7158;SDS011;63175;52.374;13.132;2024-01-30T09:12:23;8.70;;;5.80;;
7158;SDS011;63175;52.374;13.132;2024-01-30T09:14:51;10.37;;;5.33;;
7158;SDS011;63175;52.374;13.132;2024-01-30T09:17:18;6.57;;;5.40;;
7158;SDS011;63175;52.374;13.132;2024-01-30T09:19:45;9.37;;;5.80;;
7158;SDS011;63175;52.374;13.132;2024-01-30T09:22:12;6.83;;;5.07;;
7158;SDS011;63175;52.374;13.132;2024-01-30T09:24:39;4.83;;;4.33;;
7158;SDS011;63175;52.374;13.132;2024-01-30T09:27:06;7.73;;;5.40;;
7158;SDS011;63175;52.374;13.132;2024-01-30T09:29:33;8.60;;;5.30;;
7158;SDS011;63175;52.374;13.132;2024-01-30T09:32:03;7.30;;;5.20;;
7158;SDS011;63175;52.374;13.132;2024-01-30T09:34:31;9.17;;;5.80;;
7158;SDS011;63175;52.374;13.132;2024-01-30T09:36:58;11.53;;;5.40;;
7158;SDS011;63175;52.374;13.132;2024-01-30T09:39:25;9.13;;;5.37;;
7158;SDS011;63175;52.374;13.132;2024-01-30T09:41:54;13.30;;;5.67;;
7158;SDS011;63175;52.374;13.132;2024-01-30T09:44:27;9.87;;;6.20;;
7158;SDS011;63175;52.374;13.132;2024-01-30T09:46:55;7.10;;;5.17;;
7158;SDS011;63175;52.374;13.132;2024-01-30T09:49:25;9.10;;;5.90;;
7158;SDS011;63175;52.374;13.132;2024-01-30T09:51:52;7.93;;;4.97;;
7158;SDS011;63175;52.374;13.132;2024-01-30T09:54:20;9.30;;;5.53;;
7158;SDS011;63175;52.374;13.132;2024-01-30T09:56:48;8.80;;;6.33;;
7158;SDS011;63175;52.374;13.132;2024-01-30T09:59:15;10.20;;;5.60;;
7158;SDS011;63175;52.374;13.132;2024-01-30T10:01:42;8.57;;;6.10;;
7158;SDS011;63175;52.374;13.132;2024-01-30T10:04:09;8.70;;;6.97;;
7158;SDS011;63175;52.374;13.132;2024-01-30T10:06:38;6.30;;;5.37;;
7158;SDS011;63175;52.374;13.132;2024-01-30T10:09:06;9.30;;;5.87;;
7158;SDS011;63175;52.374;13.132;2024-01-30T10:11:34;8.43;;;5.70;;
7158;SDS011;63175;52.374;13.132;2024-01-30T10:14:02;6.97;;;5.87;;
7158;SDS011;63175;52.374;13.132;2024-01-30T10:16:29;7.97;;;6.07;;
7158;SDS011;63175;52.374;13.132;2024-01-30T10:18:56;6.77;;;6.10;;
7158;SDS011;63175;52.374;13.132;2024-01-30T10:21:23;9.83;;;6.50;;
7158;SDS011;63175;52.374;13.132;2024-01-30T10:23:51;8.40;;;6.10;;
7158;SDS011;63175;52.374;13.132;2024-01-30T10:26:18;8.63;;;5.83;;
7158;SDS011;63175;52.374;13.132;2024-01-30T10:28:45;9.03;;;6.30;;
7158;SDS011;63175;52.374;13.132;2024-01-30T10:31:16;10.70;;;6.13;;
7158;SDS011;63175;52.374;13.132;2024-01-30T10:33:43;8.53;;;6.20;;
7158;SDS011;63175;52.374;13.132;2024-01-30T10:36:10;8.63;;;5.90;;
7158;SDS011;63175;52.374;13.132;2024-01-30T10:38:41;7.33;;;5.90;;
7158;SDS011;63175;52.374;13.132;2024-01-30T10:41:10;12.57;;;6.90;;
7158;SDS011;63175;52.374;13.132;2024-01-30T10:43:40;9.13;;;6.17;;
7158;SDS011;63175;52.374;13.132;2024-01-30T10:46:10;8.90;;;6.77;;
7158;SDS011;63175;52.374;13.132;2024-01-30T10:48:42;11.50;;;7.50;;
7158;SDS011;63175;52.374;13.132;2024-01-30T10:51:14;12.37;;;5.93;;
7158;SDS011;63175;52.374;13.132;2024-01-30T10:53:41;12.37;;;7.40;;
7158;SDS011;63175;52.374;13.132;2024-01-30T10:56:11;7.67;;;5.90;;
7158;SDS011;63175;52.374;13.132;2024-01-30T10:58:39;10.20;;;7.37;;
7158;SDS011;63175;52.374;13.132;2024-01-30T11:01:06;11.03;;;8.07;;
7158;SDS011;63175;52.374;13.132;2024-01-30T11:03:34;8.80;;;7.00;;
7158;SDS011;63175;52.374;13.132;2024-01-30T11:06:01;11.33;;;7.97;;
7158;SDS011;63175;52.374;13.132;2024-01-30T11:08:31;7.07;;;6.33;;
7158;SDS011;63175;52.374;13.132;2024-01-30T11:10:58;10.80;;;6.27;;
7158;SDS011;63175;52.374;13.132;2024-01-30T11:13:27;11.57;;;6.53;;
7158;SDS011;63175;52.374;13.132;2024-01-30T11:15:55;8.47;;;6.83;;
7158;SDS011;63175;52.374;13.132;2024-01-30T11:18:28;15.27;;;6.10;;
7158;SDS011;63175;52.374;13.132;2024-01-30T11:20:56;11.23;;;6.23;;
7158;SDS011;63175;52.374;13.132;2024-01-30T11:23:25;8.77;;;5.80;;
7158;SDS011;63175;52.374;13.132;2024-01-30T11:25:53;10.30;;;6.13;;
7158;SDS011;63175;52.374;13.132;2024-01-30T11:28:20;11.90;;;6.57;;
7158;SDS011;63175;52.374;13.132;2024-01-30T11:30:49;9.50;;;6.00;;
7158;SDS011;63175;52.374;13.132;2024-01-30T11:33:27;9.73;;;6.10;;
7158;SDS011;63175;52.374;13.132;2024-01-30T11:35:56;9.60;;;6.27;;
7158;SDS011;63175;52.374;13.132;2024-01-30T11:38:23;7.77;;;5.30;;
7158;SDS011;63175;52.374;13.132;2024-01-30T11:40:52;9.27;;;6.30;;
7158;SDS011;63175;52.374;13.132;2024-01-30T11:43:20;9.10;;;5.70;;
7158;SDS011;63175;52.374;13.132;2024-01-30T11:45:47;9.80;;;6.80;;
7158;SDS011;63175;52.374;13.132;2024-01-30T11:48:15;11.00;;;6.70;;
7158;SDS011;63175;52.374;13.132;2024-01-30T11:50:42;9.20;;;6.27;;
7158;SDS011;63175;52.374;13.132;2024-01-30T11:53:10;7.80;;;5.77;;
7158;SDS011;63175;52.374;13.132;2024-01-30T11:55:37;11.53;;;6.27;;
7158;SDS011;63175;52.374;13.132;2024-01-30T11:58:04;8.83;;;6.47;;
7158;SDS011;63175;52.374;13.132;2024-01-30T12:00:31;12.07;;;6.97;;
7158;SDS011;63175;52.374;13.132;2024-01-30T12:02:58;10.73;;;6.93;;
7158;SDS011;63175;52.374;13.132;2024-01-30T12:05:27;9.40;;;5.77;;
7158;SDS011;63175;52.374;13.132;2024-01-30T12:07:54;7.57;;;5.50;;
7158;SDS011;63175;52.374;13.132;2024-01-30T12:10:23;7.73;;;6.07;;
7158;SDS011;63175;52.374;13.132;2024-01-30T12:12:51;6.10;;;5.23;;
7158;SDS011;63175;52.374;13.132;2024-01-30T12:15:21;6.53;;;5.07;;
7158;SDS011;63175;52.374;13.132;2024-01-30T12:17:48;12.90;;;6.07;;
7158;SDS011;63175;52.374;13.132;2024-01-30T12:20:17;10.07;;;5.73;;
7158;SDS011;63175;52.374;13.132;2024-01-30T12:22:48;6.13;;;5.17;;
7158;SDS011;63175;52.374;13.132;2024-01-30T12:25:15;7.47;;;5.50;;
7158;SDS011;63175;52.374;13.132;2024-01-30T12:27:43;5.03;;;4.50;;
7158;SDS011;63175;52.374;13.132;2024-01-30T12:30:11;9.93;;;5.20;;
7158;SDS011;63175;52.374;13.132;2024-01-30T12:32:39;8.70;;;6.03;;
7158;SDS011;63175;52.374;13.132;2024-01-30T12:35:09;6.77;;;5.07;;
7158;SDS011;63175;52.374;13.132;2024-01-30T12:37:36;8.20;;;4.60;;
7158;SDS011;63175;52.374;13.132;2024-01-30T12:40:05;10.23;;;5.60;;
7158;SDS011;63175;52.374;13.132;2024-01-30T12:42:34;7.90;;;5.30;;
7158;SDS011;63175;52.374;13.132;2024-01-30T12:45:01;11.77;;;5.93;;
7158;SDS011;63175;52.374;13.132;2024-01-30T12:47:29;6.60;;;5.13;;
7158;SDS011;63175;52.374;13.132;2024-01-30T12:49:56;8.20;;;5.30;;
7158;SDS011;63175;52.374;13.132;2024-01-30T12:52:23;5.90;;;5.27;;
7158;SDS011;63175;52.374;13.132;2024-01-30T12:54:50;6.60;;;4.43;;
7158;SDS011;63175;52.374;13.132;2024-01-30T12:57:19;7.83;;;5.80;;
7158;SDS011;63175;52.374;13.132;2024-01-30T12:59:46;9.70;;;5.40;;
7158;SDS011;63175;52.374;13.132;2024-01-30T13:02:13;7.17;;;5.23;;
7158;SDS011;63175;52.374;13.132;2024-01-30T13:04:41;8.00;;;4.93;;
7158;SDS011;63175;52.374;13.132;2024-01-30T13:07:09;7.90;;;5.67;;
7158;SDS011;63175;52.374;13.132;2024-01-30T13:09:35;8.00;;;4.87;;
7158;SDS011;63175;52.374;13.132;2024-01-30T13:12:03;8.50;;;5.20;;
7158;SDS011;63175;52.374;13.132;2024-01-30T13:14:31;10.73;;;5.70;;
7158;SDS011;63175;52.374;13.132;2024-01-30T13:16:58;5.60;;;4.40;;
7158;SDS011;63175;52.374;13.132;2024-01-30T13:19:25;6.80;;;4.60;;
7158;SDS011;63175;52.374;13.132;2024-01-30T13:21:52;5.00;;;3.73;;
7158;SDS011;63175;52.374;13.132;2024-01-30T13:24:19;7.10;;;5.37;;
7158;SDS011;63175;52.374;13.132;2024-01-30T13:26:46;5.63;;;4.70;;
7158;SDS011;63175;52.374;13.132;2024-01-30T13:29:14;7.07;;;4.80;;
7158;SDS011;63175;52.374;13.132;2024-01-30T13:31:42;6.40;;;4.80;;
7158;SDS011;63175;52.374;13.132;2024-01-30T13:34:11;13.87;;;4.70;;
7158;SDS011;63175;52.374;13.132;2024-01-30T13:36:38;7.73;;;4.00;;
7158;SDS011;63175;52.374;13.132;2024-01-30T13:39:05;14.13;;;4.67;;
7158;SDS011;63175;52.374;13.132;2024-01-30T13:41:34;7.03;;;5.10;;
7158;SDS011;63175;52.374;13.132;2024-01-30T13:44:01;11.27;;;4.50;;
7158;SDS011;63175;52.374;13.132;2024-01-30T13:46:28;8.10;;;4.03;;
7158;SDS011;63175;52.374;13.132;2024-01-30T13:48:56;6.37;;;4.40;;
7158;SDS011;63175;52.374;13.132;2024-01-30T13:51:23;10.13;;;4.03;;
7158;SDS011;63175;52.374;13.132;2024-01-30T13:53:50;5.67;;;4.63;;
7158;SDS011;63175;52.374;13.132;2024-01-30T13:56:17;8.00;;;4.37;;
7158;SDS011;63175;52.374;13.132;2024-01-30T13:58:44;5.20;;;3.80;;
7158;SDS011;63175;52.374;13.132;2024-01-30T14:01:11;7.87;;;4.70;;
7158;SDS011;63175;52.374;13.132;2024-01-30T14:03:38;5.27;;;4.43;;
7158;SDS011;63175;52.374;13.132;2024-01-30T14:06:06;8.20;;;6.03;;
7158;SDS011;63175;52.374;13.132;2024-01-30T14:08:33;10.50;;;5.60;;
7158;SDS011;63175;52.374;13.132;2024-01-30T14:11:00;7.63;;;5.57;;
7158;SDS011;63175;52.374;13.132;2024-01-30T14:13:27;6.13;;;5.20;;
7158;SDS011;63175;52.374;13.132;2024-01-30T14:15:53;6.67;;;4.93;;
7158;SDS011;63175;52.374;13.132;2024-01-30T14:18:21;8.63;;;5.37;;
7158;SDS011;63175;52.374;13.132;2024-01-30T14:20:48;8.73;;;5.40;;
7158;SDS011;63175;52.374;13.132;2024-01-30T14:23:17;7.43;;;5.00;;
7158;SDS011;63175;52.374;13.132;2024-01-30T14:25:44;9.10;;;6.27;;
7158;SDS011;63175;52.374;13.132;2024-01-30T14:28:10;9.50;;;5.10;;
7158;SDS011;63175;52.374;13.132;2024-01-30T14:30:37;10.47;;;5.90;;
7158;SDS011;63175;52.374;13.132;2024-01-30T14:33:04;22.67;;;7.80;;
7158;SDS011;63175;52.374;13.132;2024-01-30T14:35:32;12.93;;;6.93;;
7158;SDS011;63175;52.374;13.132;2024-01-30T14:37:59;9.50;;;6.70;;
7158;SDS011;63175;52.374;13.132;2024-01-30T14:40:27;15.20;;;6.80;;
7158;SDS011;63175;52.374;13.132;2024-01-30T14:42:54;10.00;;;7.10;;
7158;SDS011;63175;52.374;13.132;2024-01-30T14:45:21;11.77;;;7.70;;
7158;SDS011;63175;52.374;13.132;2024-01-30T14:47:49;15.00;;;6.60;;